sensor_id;sensor_type;location;lat;lon;timestamp;pressure;altitude;pressure_sealevel;temperature;humidity
77011;BME280;65945;53.148;17.956;2023-08-06T00:00:51;100340.41;;;15.12;91.48
77011;BME280;65945;53.148;17.956;2023-08-06T00:03:38;100332.64;;;15.07;91.59
77011;BME280;65945;53.148;17.956;2023-08-06T00:06:05;100325.65;;;15.02;91.74
77011;BME280;65945;53.148;17.956;2023-08-06T00:08:32;100321.58;;;14.97;92.16
77011;BME280;65945;53.148;17.956;2023-08-06T00:10:59;100311.58;;;14.94;92.13
77011;BME280;65945;53.148;17.956;2023-08-06T00:13:25;100300.96;;;14.91;92.64
77011;BME280;65945;53.148;17.956;2023-08-06T00:15:52;100289.11;;;14.88;92.72
77011;BME280;65945;53.148;17.956;2023-08-06T00:18:18;100280.13;;;14.85;93.26
77011;BME280;65945;53.148;17.956;2023-08-06T00:20:45;100273.51;;;14.84;92.56
77011;BME280;65945;53.148;17.956;2023-08-06T00:23:11;100268.35;;;14.83;92.68
77011;BME280;65945;53.148;17.956;2023-08-06T00:25:38;100270.66;;;14.82;92.95
77011;BME280;65945;53.148;17.956;2023-08-06T00:28:04;100276.36;;;14.80;93.10
77011;BME280;65945;53.148;17.956;2023-08-06T00:30:31;100272.13;;;14.79;93.24
77011;BME280;65945;53.148;17.956;2023-08-06T00:32:58;100260.59;;;14.79;93.38
77011;BME280;65945;53.148;17.956;2023-08-06T00:35:24;100256.28;;;14.78;93.57
77011;BME280;65945;53.148;17.956;2023-08-06T00:37:51;100253.05;;;14.78;93.49
77011;BME280;65945;53.148;17.956;2023-08-06T00:40:20;100249.20;;;14.78;93.65
77011;BME280;65945;53.148;17.956;2023-08-06T00:42:47;100238.65;;;14.79;93.65
77011;BME280;65945;53.148;17.956;2023-08-06T00:45:14;100226.51;;;14.79;93.93
77011;BME280;65945;53.148;17.956;2023-08-06T00:47:41;100224.51;;;14.79;94.03
77011;BME280;65945;53.148;17.956;2023-08-06T00:50:08;100225.52;;;14.79;94.02
77011;BME280;65945;53.148;17.956;2023-08-06T00:52:35;100224.81;;;14.81;93.47
77011;BME280;65945;53.148;17.956;2023-08-06T00:55:04;100222.27;;;14.82;94.19
77011;BME280;65945;53.148;17.956;2023-08-06T00:57:30;100213.04;;;14.83;93.99
77011;BME280;65945;53.148;17.956;2023-08-06T00:59:57;100202.64;;;14.84;93.70
77011;BME280;65945;53.148;17.956;2023-08-06T01:02:24;100192.48;;;14.86;93.43
77011;BME280;65945;53.148;17.956;2023-08-06T01:04:50;100179.64;;;14.88;93.72
77011;BME280;65945;53.148;17.956;2023-08-06T01:10:25;100158.46;;;14.89;93.94
77011;BME280;65945;53.148;17.956;2023-08-06T01:13:54;100151.08;;;14.90;94.06
77011;BME280;65945;53.148;17.956;2023-08-06T01:15:55;100138.23;;;14.91;93.88
77011;BME280;65945;53.148;17.956;2023-08-06T01:18:23;100133.44;;;14.92;94.23
77011;BME280;65945;53.148;17.956;2023-08-06T01:20:50;100124.90;;;14.92;94.33
77011;BME280;65945;53.148;17.956;2023-08-06T01:23:17;100116.19;;;14.94;94.37
77011;BME280;65945;53.148;17.956;2023-08-06T01:31:48;100064.80;;;14.94;94.95
77011;BME280;65945;53.148;17.956;2023-08-06T01:34:21;100059.80;;;14.93;95.12
77011;BME280;65945;53.148;17.956;2023-08-06T01:36:50;100061.40;;;14.94;95.34
77011;BME280;65945;53.148;17.956;2023-08-06T01:43:16;100049.88;;;14.93;95.18
77011;BME280;65945;53.148;17.956;2023-08-06T01:45:43;100043.27;;;14.92;95.19
77011;BME280;65945;53.148;17.956;2023-08-06T01:48:09;100038.56;;;14.92;95.29
77011;BME280;65945;53.148;17.956;2023-08-06T01:50:36;100032.25;;;14.93;95.13
77011;BME280;65945;53.148;17.956;2023-08-06T01:53:02;100028.62;;;14.94;95.25
77011;BME280;65945;53.148;17.956;2023-08-06T01:55:29;100025.78;;;14.94;95.02
77011;BME280;65945;53.148;17.956;2023-08-06T01:57:58;100021.47;;;14.94;95.29
77011;BME280;65945;53.148;17.956;2023-08-06T02:00:25;100011.15;;;14.94;95.83
77011;BME280;65945;53.148;17.956;2023-08-06T02:02:52;100002.99;;;14.94;95.87
77011;BME280;65945;53.148;17.956;2023-08-06T02:05:18;100000.92;;;14.95;95.49
77011;BME280;65945;53.148;17.956;2023-08-06T02:07:45;99988.76;;;14.95;95.74
77011;BME280;65945;53.148;17.956;2023-08-06T02:10:11;99981.75;;;14.96;95.75
77011;BME280;65945;53.148;17.956;2023-08-06T02:12:38;99968.67;;;14.97;95.55
77011;BME280;65945;53.148;17.956;2023-08-06T02:15:05;99957.42;;;14.97;95.37
77011;BME280;65945;53.148;17.956;2023-08-06T02:17:32;99945.58;;;14.97;95.30
77011;BME280;65945;53.148;17.956;2023-08-06T02:19:58;99929.04;;;14.97;95.41
77011;BME280;65945;53.148;17.956;2023-08-06T02:22:25;99913.80;;;14.96;95.31
77011;BME280;65945;53.148;17.956;2023-08-06T02:24:52;99902.20;;;14.94;95.30
77011;BME280;65945;53.148;17.956;2023-08-06T02:27:18;99897.66;;;14.93;95.44
77011;BME280;65945;53.148;17.956;2023-08-06T02:29:45;99895.30;;;14.92;95.58
77011;BME280;65945;53.148;17.956;2023-08-06T02:32:12;99897.07;;;14.91;95.53
77011;BME280;65945;53.148;17.956;2023-08-06T02:34:39;99899.63;;;14.90;95.53
77011;BME280;65945;53.148;17.956;2023-08-06T02:37:05;99905.77;;;14.89;95.71
77011;BME280;65945;53.148;17.956;2023-08-06T02:39:32;99906.48;;;14.89;95.67
77011;BME280;65945;53.148;17.956;2023-08-06T02:42:00;99909.02;;;14.90;95.52
77011;BME280;65945;53.148;17.956;2023-08-06T02:44:27;99910.47;;;14.89;95.51
77011;BME280;65945;53.148;17.956;2023-08-06T02:46:54;99913.63;;;14.89;95.76
77011;BME280;65945;53.148;17.956;2023-08-06T02:49:21;99905.01;;;14.89;95.28
77011;BME280;65945;53.148;17.956;2023-08-06T02:51:47;99899.86;;;14.90;95.58
77011;BME280;65945;53.148;17.956;2023-08-06T02:54:14;99896.24;;;14.90;95.62
77011;BME280;65945;53.148;17.956;2023-08-06T02:56:45;99898.39;;;14.89;96.00
77011;BME280;65945;53.148;17.956;2023-08-06T02:59:28;99902.91;;;14.91;95.52
77011;BME280;65945;53.148;17.956;2023-08-06T03:02:17;99897.45;;;14.92;95.31
77011;BME280;65945;53.148;17.956;2023-08-06T03:04:51;99897.29;;;14.93;95.67
77011;BME280;65945;53.148;17.956;2023-08-06T03:07:18;99897.57;;;14.94;95.59
77011;BME280;65945;53.148;17.956;2023-08-06T03:09:52;99898.20;;;14.94;95.39
77011;BME280;65945;53.148;17.956;2023-08-06T03:12:20;99892.27;;;14.96;94.98
77011;BME280;65945;53.148;17.956;2023-08-06T03:14:48;99892.95;;;14.97;94.68
77011;BME280;65945;53.148;17.956;2023-08-06T03:17:15;99892.92;;;14.99;94.60
77011;BME280;65945;53.148;17.956;2023-08-06T03:19:42;99893.92;;;15.00;94.41
77011;BME280;65945;53.148;17.956;2023-08-06T03:22:10;99901.44;;;15.02;94.31
77011;BME280;65945;53.148;17.956;2023-08-06T03:24:37;99901.80;;;15.04;94.20
77011;BME280;65945;53.148;17.956;2023-08-06T03:27:04;99900.17;;;15.06;94.10
77011;BME280;65945;53.148;17.956;2023-08-06T03:29:31;99907.40;;;15.07;93.97
77011;BME280;65945;53.148;17.956;2023-08-06T03:31:59;99905.46;;;15.08;93.93
77011;BME280;65945;53.148;17.956;2023-08-06T03:34:26;99905.45;;;15.10;93.90
77011;BME280;65945;53.148;17.956;2023-08-06T03:36:53;99889.44;;;15.10;93.69
77011;BME280;65945;53.148;17.956;2023-08-06T03:39:20;99888.29;;;15.11;93.60
77011;BME280;65945;53.148;17.956;2023-08-06T03:41:46;99879.50;;;15.11;93.64
77011;BME280;65945;53.148;17.956;2023-08-06T03:44:13;99869.51;;;15.10;93.60
77011;BME280;65945;53.148;17.956;2023-08-06T03:46:40;99853.20;;;15.10;93.81
77011;BME280;65945;53.148;17.956;2023-08-06T03:49:07;99839.28;;;15.07;94.65
77011;BME280;65945;53.148;17.956;2023-08-06T03:51:34;99818.23;;;15.04;95.02
77011;BME280;65945;53.148;17.956;2023-08-06T03:54:01;99804.70;;;15.02;95.08
77011;BME280;65945;53.148;17.956;2023-08-06T03:56:27;99790.58;;;15.00;95.50
77011;BME280;65945;53.148;17.956;2023-08-06T03:58:54;99772.27;;;14.99;95.80
77011;BME280;65945;53.148;17.956;2023-08-06T04:01:21;99754.35;;;14.98;95.68
77011;BME280;65945;53.148;17.956;2023-08-06T04:03:48;99735.29;;;14.97;95.74
77011;BME280;65945;53.148;17.956;2023-08-06T04:06:14;99718.20;;;14.97;96.00
77011;BME280;65945;53.148;17.956;2023-08-06T04:08:41;99697.50;;;14.96;96.20
77011;BME280;65945;53.148;17.956;2023-08-06T04:11:08;99690.34;;;14.97;96.11
77011;BME280;65945;53.148;17.956;2023-08-06T04:13:34;99695.78;;;14.99;95.69
77011;BME280;65945;53.148;17.956;2023-08-06T04:16:02;99696.77;;;15.00;95.56
77011;BME280;65945;53.148;17.956;2023-08-06T04:18:29;99684.29;;;15.01;95.81
77011;BME280;65945;53.148;17.956;2023-08-06T04:20:56;99680.44;;;15.01;95.90
77011;BME280;65945;53.148;17.956;2023-08-06T04:23:23;99693.34;;;15.03;95.74
77011;BME280;65945;53.148;17.956;2023-08-06T04:25:51;99694.77;;;15.04;95.79
77011;BME280;65945;53.148;17.956;2023-08-06T04:28:19;99694.48;;;15.04;95.82
77011;BME280;65945;53.148;17.956;2023-08-06T04:30:45;99692.48;;;15.03;95.79
77011;BME280;65945;53.148;17.956;2023-08-06T04:33:12;99693.17;;;15.05;95.58
77011;BME280;65945;53.148;17.956;2023-08-06T04:35:38;99693.52;;;15.08;95.34
77011;BME280;65945;53.148;17.956;2023-08-06T04:38:05;99696.73;;;15.10;95.24
77011;BME280;65945;53.148;17.956;2023-08-06T04:40:35;99695.86;;;15.12;95.05
77011;BME280;65945;53.148;17.956;2023-08-06T04:43:02;99697.97;;;15.15;94.98
77011;BME280;65945;53.148;17.956;2023-08-06T04:45:30;99702.56;;;15.17;95.04
77011;BME280;65945;53.148;17.956;2023-08-06T04:47:57;99703.87;;;15.18;95.02
77011;BME280;65945;53.148;17.956;2023-08-06T04:50:23;99695.14;;;15.20;94.87
77011;BME280;65945;53.148;17.956;2023-08-06T04:52:50;99691.02;;;15.23;94.79
77011;BME280;65945;53.148;17.956;2023-08-06T04:55:16;99680.35;;;15.26;94.89
77011;BME280;65945;53.148;17.956;2023-08-06T04:57:43;99651.16;;;15.28;95.27
77011;BME280;65945;53.148;17.956;2023-08-06T05:00:10;99628.23;;;15.27;96.02
77011;BME280;65945;53.148;17.956;2023-08-06T05:02:36;99621.84;;;15.28;95.93
77011;BME280;65945;53.148;17.956;2023-08-06T05:05:05;99606.48;;;15.29;95.83
77011;BME280;65945;53.148;17.956;2023-08-06T05:07:31;99589.45;;;15.31;96.12
77011;BME280;65945;53.148;17.956;2023-08-06T05:09:58;99593.27;;;15.33;96.33
77011;BME280;65945;53.148;17.956;2023-08-06T05:12:24;99591.38;;;15.36;96.33
77011;BME280;65945;53.148;17.956;2023-08-06T05:14:51;99612.95;;;15.40;96.57
77011;BME280;65945;53.148;17.956;2023-08-06T05:17:17;99627.47;;;15.46;96.44
77011;BME280;65945;53.148;17.956;2023-08-06T05:19:44;99633.55;;;15.50;96.26
77011;BME280;65945;53.148;17.956;2023-08-06T05:22:11;99629.63;;;15.55;96.01
77011;BME280;65945;53.148;17.956;2023-08-06T05:24:37;99622.23;;;15.60;96.15
77011;BME280;65945;53.148;17.956;2023-08-06T05:27:04;99620.64;;;15.65;95.95
77011;BME280;65945;53.148;17.956;2023-08-06T05:29:31;99618.35;;;15.69;95.95
77011;BME280;65945;53.148;17.956;2023-08-06T05:31:57;99621.66;;;15.73;96.33
77011;BME280;65945;53.148;17.956;2023-08-06T05:34:24;99616.66;;;15.77;95.98
77011;BME280;65945;53.148;17.956;2023-08-06T05:36:51;99622.05;;;15.82;96.35
77011;BME280;65945;53.148;17.956;2023-08-06T05:39:19;99628.54;;;15.86;96.48
77011;BME280;65945;53.148;17.956;2023-08-06T05:41:45;99631.63;;;15.90;96.67
77011;BME280;65945;53.148;17.956;2023-08-06T05:44:12;99630.31;;;15.95;96.92
77011;BME280;65945;53.148;17.956;2023-08-06T05:46:38;99620.48;;;15.98;96.58
77011;BME280;65945;53.148;17.956;2023-08-06T05:49:05;99616.69;;;16.03;96.37
77011;BME280;65945;53.148;17.956;2023-08-06T05:51:31;99620.70;;;16.07;96.57
77011;BME280;65945;53.148;17.956;2023-08-06T05:53:58;99620.95;;;16.11;96.24
77011;BME280;65945;53.148;17.956;2023-08-06T05:56:24;99618.48;;;16.15;96.21
77011;BME280;65945;53.148;17.956;2023-08-06T05:58:51;99615.80;;;16.18;96.50
77011;BME280;65945;53.148;17.956;2023-08-06T06:01:19;99616.44;;;16.21;96.41
77011;BME280;65945;53.148;17.956;2023-08-06T06:03:46;99609.77;;;16.24;96.57
77011;BME280;65945;53.148;17.956;2023-08-06T06:06:12;99604.23;;;16.27;96.20
77011;BME280;65945;53.148;17.956;2023-08-06T06:08:39;99601.09;;;16.31;96.18
77011;BME280;65945;53.148;17.956;2023-08-06T06:11:05;99588.04;;;16.36;96.30
77011;BME280;65945;53.148;17.956;2023-08-06T06:13:32;99579.89;;;16.38;96.52
77011;BME280;65945;53.148;17.956;2023-08-06T06:15:58;99576.91;;;16.41;96.66
77011;BME280;65945;53.148;17.956;2023-08-06T06:18:25;99576.78;;;16.43;96.31
77011;BME280;65945;53.148;17.956;2023-08-06T06:20:51;99572.56;;;16.48;96.22
77011;BME280;65945;53.148;17.956;2023-08-06T06:23:18;99574.98;;;16.51;96.40
77011;BME280;65945;53.148;17.956;2023-08-06T06:25:49;99573.23;;;16.53;96.30
77011;BME280;65945;53.148;17.956;2023-08-06T06:28:18;99567.15;;;16.57;96.58
77011;BME280;65945;53.148;17.956;2023-08-06T06:30:45;99561.54;;;16.60;96.63
77011;BME280;65945;53.148;17.956;2023-08-06T06:33:11;99557.13;;;16.64;96.26
77011;BME280;65945;53.148;17.956;2023-08-06T06:35:38;99545.36;;;16.70;96.28
77011;BME280;65945;53.148;17.956;2023-08-06T06:38:05;99542.33;;;16.74;96.44
77011;BME280;65945;53.148;17.956;2023-08-06T06:40:31;99536.55;;;16.77;96.65
77011;BME280;65945;53.148;17.956;2023-08-06T06:42:59;99536.16;;;16.81;96.73
77011;BME280;65945;53.148;17.956;2023-08-06T06:45:25;99536.39;;;16.85;96.75
77011;BME280;65945;53.148;17.956;2023-08-06T06:47:52;99538.14;;;16.90;96.58
77011;BME280;65945;53.148;17.956;2023-08-06T06:50:19;99534.73;;;16.93;96.51
77011;BME280;65945;53.148;17.956;2023-08-06T06:52:45;99531.48;;;16.97;96.28
77011;BME280;65945;53.148;17.956;2023-08-06T06:55:12;99527.28;;;17.02;96.31
77011;BME280;65945;53.148;17.956;2023-08-06T06:57:38;99526.11;;;17.06;96.23
77011;BME280;65945;53.148;17.956;2023-08-06T07:00:05;99524.64;;;17.09;96.53
77011;BME280;65945;53.148;17.956;2023-08-06T07:02:32;99516.98;;;17.14;96.75
77011;BME280;65945;53.148;17.956;2023-08-06T07:04:59;99512.73;;;17.17;96.46
77011;BME280;65945;53.148;17.956;2023-08-06T07:07:25;99509.52;;;17.23;96.18
77011;BME280;65945;53.148;17.956;2023-08-06T07:09:52;99507.70;;;17.31;96.03
77011;BME280;65945;53.148;17.956;2023-08-06T07:12:18;99504.52;;;17.37;96.01
77011;BME280;65945;53.148;17.956;2023-08-06T07:14:45;99501.30;;;17.43;95.68
77011;BME280;65945;53.148;17.956;2023-08-06T07:17:12;99498.14;;;17.46;95.64
77011;BME280;65945;53.148;17.956;2023-08-06T07:19:38;99494.04;;;17.51;95.55
77011;BME280;65945;53.148;17.956;2023-08-06T07:22:05;99494.09;;;17.54;95.44
77011;BME280;65945;53.148;17.956;2023-08-06T07:24:32;99490.00;;;17.58;95.46
77011;BME280;65945;53.148;17.956;2023-08-06T07:26:59;99479.50;;;17.60;95.41
77011;BME280;65945;53.148;17.956;2023-08-06T07:29:26;99473.57;;;17.65;95.30
77011;BME280;65945;53.148;17.956;2023-08-06T07:31:53;99471.12;;;17.71;95.39
77011;BME280;65945;53.148;17.956;2023-08-06T07:34:20;99473.63;;;17.75;95.07
77011;BME280;65945;53.148;17.956;2023-08-06T07:36:46;99474.59;;;17.82;94.91
77011;BME280;65945;53.148;17.956;2023-08-06T07:39:14;99466.02;;;17.88;94.83
77011;BME280;65945;53.148;17.956;2023-08-06T07:41:43;99458.21;;;17.93;94.61
77011;BME280;65945;53.148;17.956;2023-08-06T07:44:09;99450.61;;;17.97;94.36
77011;BME280;65945;53.148;17.956;2023-08-06T07:46:36;99447.59;;;18.00;94.09
77011;BME280;65945;53.148;17.956;2023-08-06T07:49:03;99448.94;;;18.02;93.99
77011;BME280;65945;53.148;17.956;2023-08-06T07:51:30;99439.77;;;18.03;94.01
77011;BME280;65945;53.148;17.956;2023-08-06T07:53:57;99438.69;;;18.03;93.95
77011;BME280;65945;53.148;17.956;2023-08-06T07:56:23;99421.13;;;18.04;93.79
77011;BME280;65945;53.148;17.956;2023-08-06T07:58:51;99423.92;;;18.04;93.72
77011;BME280;65945;53.148;17.956;2023-08-06T08:01:17;99420.39;;;18.03;93.55
77011;BME280;65945;53.148;17.956;2023-08-06T08:03:44;99421.42;;;18.04;93.56
77011;BME280;65945;53.148;17.956;2023-08-06T08:06:12;99426.23;;;18.06;93.50
77011;BME280;65945;53.148;17.956;2023-08-06T08:08:38;99425.85;;;18.06;93.43
77011;BME280;65945;53.148;17.956;2023-08-06T08:11:05;99429.27;;;18.05;93.34
77011;BME280;65945;53.148;17.956;2023-08-06T08:13:32;99431.01;;;18.07;93.35
77011;BME280;65945;53.148;17.956;2023-08-06T08:15:59;99426.83;;;18.07;93.29
77011;BME280;65945;53.148;17.956;2023-08-06T08:18:26;99427.99;;;18.09;93.23
77011;BME280;65945;53.148;17.956;2023-08-06T08:20:53;99422.64;;;18.10;93.10
77011;BME280;65945;53.148;17.956;2023-08-06T08:23:20;99419.52;;;18.11;93.03
77011;BME280;65945;53.148;17.956;2023-08-06T08:25:46;99410.58;;;18.13;93.05
77011;BME280;65945;53.148;17.956;2023-08-06T08:28:13;99403.99;;;18.13;92.60
77011;BME280;65945;53.148;17.956;2023-08-06T08:30:41;99393.00;;;18.14;92.82
77011;BME280;65945;53.148;17.956;2023-08-06T08:33:07;99388.63;;;18.15;93.07
77011;BME280;65945;53.148;17.956;2023-08-06T08:35:36;99384.16;;;18.17;93.02
77011;BME280;65945;53.148;17.956;2023-08-06T08:38:02;99377.45;;;18.19;93.04
77011;BME280;65945;53.148;17.956;2023-08-06T08:40:32;99374.03;;;18.19;93.01
77011;BME280;65945;53.148;17.956;2023-08-06T08:42:59;99371.98;;;18.21;93.09
77011;BME280;65945;53.148;17.956;2023-08-06T08:45:26;99369.47;;;18.22;92.77
77011;BME280;65945;53.148;17.956;2023-08-06T08:47:55;99369.42;;;18.26;92.82
77011;BME280;65945;53.148;17.956;2023-08-06T08:50:21;99364.24;;;18.31;92.68
77011;BME280;65945;53.148;17.956;2023-08-06T08:52:51;99361.08;;;18.39;92.48
77011;BME280;65945;53.148;17.956;2023-08-06T08:55:21;99355.67;;;18.46;92.01
77011;BME280;65945;53.148;17.956;2023-08-06T08:57:51;99348.09;;;18.54;91.64
77011;BME280;65945;53.148;17.956;2023-08-06T09:00:19;99346.31;;;18.62;91.64
77011;BME280;65945;53.148;17.956;2023-08-06T09:02:46;99347.06;;;18.70;91.67
77011;BME280;65945;53.148;17.956;2023-08-06T09:05:13;99343.55;;;18.73;90.96
77011;BME280;65945;53.148;17.956;2023-08-06T09:07:42;99343.75;;;18.76;91.05
77011;BME280;65945;53.148;17.956;2023-08-06T09:10:13;99338.69;;;18.79;91.07
77011;BME280;65945;53.148;17.956;2023-08-06T09:12:41;99335.72;;;18.80;90.88
77011;BME280;65945;53.148;17.956;2023-08-06T09:15:08;99330.84;;;18.80;90.99
77011;BME280;65945;53.148;17.956;2023-08-06T09:17:36;99327.63;;;18.81;90.73
77011;BME280;65945;53.148;17.956;2023-08-06T09:20:13;99326.52;;;18.80;90.27
77011;BME280;65945;53.148;17.956;2023-08-06T09:22:40;99322.73;;;18.82;90.58
77011;BME280;65945;53.148;17.956;2023-08-06T09:25:08;99314.09;;;18.86;90.37
77011;BME280;65945;53.148;17.956;2023-08-06T09:27:38;99318.91;;;18.88;90.06
77011;BME280;65945;53.148;17.956;2023-08-06T09:30:06;99312.85;;;18.90;90.38
77011;BME280;65945;53.148;17.956;2023-08-06T09:32:47;99307.26;;;18.91;90.52
77011;BME280;65945;53.148;17.956;2023-08-06T09:35:18;99298.77;;;18.92;90.42
77011;BME280;65945;53.148;17.956;2023-08-06T09:37:45;99291.91;;;18.94;90.26
77011;BME280;65945;53.148;17.956;2023-08-06T09:40:25;99291.94;;;18.93;90.28
77011;BME280;65945;53.148;17.956;2023-08-06T09:42:56;99294.88;;;18.91;90.37
77011;BME280;65945;53.148;17.956;2023-08-06T09:45:28;99295.05;;;18.92;90.29
77011;BME280;65945;53.148;17.956;2023-08-06T09:47:56;99291.85;;;18.93;90.24
77011;BME280;65945;53.148;17.956;2023-08-06T09:50:28;99284.11;;;18.89;90.40
77011;BME280;65945;53.148;17.956;2023-08-06T09:52:56;99274.96;;;18.87;90.73
77011;BME280;65945;53.148;17.956;2023-08-06T09:55:24;99273.40;;;18.87;90.88
77011;BME280;65945;53.148;17.956;2023-08-06T09:57:52;99271.71;;;18.86;90.84
77011;BME280;65945;53.148;17.956;2023-08-06T10:00:19;99263.73;;;18.85;90.96
77011;BME280;65945;53.148;17.956;2023-08-06T10:02:46;99256.97;;;18.83;91.23
77011;BME280;65945;53.148;17.956;2023-08-06T10:05:15;99262.33;;;18.83;91.46
77011;BME280;65945;53.148;17.956;2023-08-06T10:07:43;99248.77;;;18.83;91.51
77011;BME280;65945;53.148;17.956;2023-08-06T10:10:11;99241.13;;;18.84;91.44
77011;BME280;65945;53.148;17.956;2023-08-06T10:12:46;99227.13;;;18.89;91.40
77011;BME280;65945;53.148;17.956;2023-08-06T10:15:17;99222.08;;;18.97;91.17
77011;BME280;65945;53.148;17.956;2023-08-06T10:17:47;99219.17;;;19.06;90.97
77011;BME280;65945;53.148;17.956;2023-08-06T10:20:16;99217.41;;;19.12;90.66
77011;BME280;65945;53.148;17.956;2023-08-06T10:22:43;99222.84;;;19.13;90.79
77011;BME280;65945;53.148;17.956;2023-08-06T10:25:16;99225.64;;;19.13;90.72
77011;BME280;65945;53.148;17.956;2023-08-06T10:30:25;99227.80;;;19.13;90.75
77011;BME280;65945;53.148;17.956;2023-08-06T10:35:35;99214.17;;;19.15;90.76
77011;BME280;65945;53.148;17.956;2023-08-06T10:38:09;99214.21;;;19.20;90.97
77011;BME280;65945;53.148;17.956;2023-08-06T10:40:40;99213.19;;;19.27;90.54
77011;BME280;65945;53.148;17.956;2023-08-06T10:43:08;99208.20;;;19.26;90.59
77011;BME280;65945;53.148;17.956;2023-08-06T10:45:50;99206.52;;;19.28;90.73
77011;BME280;65945;53.148;17.956;2023-08-06T10:48:45;99204.69;;;19.29;90.91
77011;BME280;65945;53.148;17.956;2023-08-06T10:51:13;99196.89;;;19.30;90.88
77011;BME280;65945;53.148;17.956;2023-08-06T10:53:49;99185.73;;;19.33;91.40
77011;BME280;65945;53.148;17.956;2023-08-06T10:56:21;99178.66;;;19.38;91.28
77011;BME280;65945;53.148;17.956;2023-08-06T10:58:49;99172.91;;;19.36;90.97
77011;BME280;65945;53.148;17.956;2023-08-06T11:01:17;99164.78;;;19.38;91.22
77011;BME280;65945;53.148;17.956;2023-08-06T11:03:46;99164.82;;;19.43;91.05
77011;BME280;65945;53.148;17.956;2023-08-06T11:06:18;99163.72;;;19.42;90.87
77011;BME280;65945;53.148;17.956;2023-08-06T11:08:51;99156.86;;;19.40;91.08
77011;BME280;65945;53.148;17.956;2023-08-06T11:11:18;99149.90;;;19.40;90.99
77011;BME280;65945;53.148;17.956;2023-08-06T11:13:46;99146.61;;;19.43;91.06
77011;BME280;65945;53.148;17.956;2023-08-06T11:16:14;99138.07;;;19.45;91.30
77011;BME280;65945;53.148;17.956;2023-08-06T11:18:42;99129.89;;;19.46;91.18
77011;BME280;65945;53.148;17.956;2023-08-06T11:21:09;99129.95;;;19.47;90.87
77011;BME280;65945;53.148;17.956;2023-08-06T11:23:36;99119.80;;;19.47;90.96
77011;BME280;65945;53.148;17.956;2023-08-06T11:26:03;99119.30;;;19.52;91.08
77011;BME280;65945;53.148;17.956;2023-08-06T11:28:29;99116.02;;;19.52;90.46
77011;BME280;65945;53.148;17.956;2023-08-06T11:30:57;99111.40;;;19.52;90.66
77011;BME280;65945;53.148;17.956;2023-08-06T11:33:28;99106.61;;;19.51;90.96
77011;BME280;65945;53.148;17.956;2023-08-06T11:35:56;99098.32;;;19.51;91.02
77011;BME280;65945;53.148;17.956;2023-08-06T11:38:25;99091.94;;;19.50;91.20
77011;BME280;65945;53.148;17.956;2023-08-06T11:40:53;99083.16;;;19.49;91.31
77011;BME280;65945;53.148;17.956;2023-08-06T11:43:20;99073.54;;;19.49;91.26
77011;BME280;65945;53.148;17.956;2023-08-06T11:45:49;99057.27;;;19.52;91.41
77011;BME280;65945;53.148;17.956;2023-08-06T11:48:17;99054.90;;;19.53;91.07
77011;BME280;65945;53.148;17.956;2023-08-06T11:50:45;99060.90;;;19.55;91.01
77011;BME280;65945;53.148;17.956;2023-08-06T11:53:14;99056.35;;;19.54;90.99
77011;BME280;65945;53.148;17.956;2023-08-06T11:55:41;99061.39;;;19.54;91.15
77011;BME280;65945;53.148;17.956;2023-08-06T11:58:10;99061.48;;;19.54;91.20
77011;BME280;65945;53.148;17.956;2023-08-06T12:00:39;99057.30;;;19.52;91.39
77011;BME280;65945;53.148;17.956;2023-08-06T12:03:06;99053.03;;;19.50;91.37
77011;BME280;65945;53.148;17.956;2023-08-06T12:05:33;99047.60;;;19.50;91.52
77011;BME280;65945;53.148;17.956;2023-08-06T12:08:01;99045.80;;;19.49;91.54
77011;BME280;65945;53.148;17.956;2023-08-06T12:10:29;99039.43;;;19.47;91.62
77011;BME280;65945;53.148;17.956;2023-08-06T12:12:56;99031.45;;;19.49;91.85
77011;BME280;65945;53.148;17.956;2023-08-06T12:15:23;99026.72;;;19.49;91.79
77011;BME280;65945;53.148;17.956;2023-08-06T12:17:50;99033.92;;;19.51;91.73
77011;BME280;65945;53.148;17.956;2023-08-06T12:20:17;99039.11;;;19.53;91.78
77011;BME280;65945;53.148;17.956;2023-08-06T12:22:44;99044.80;;;19.54;91.81
77011;BME280;65945;53.148;17.956;2023-08-06T12:25:12;99042.64;;;19.54;91.77
77011;BME280;65945;53.148;17.956;2023-08-06T12:27:44;99044.11;;;19.54;91.77
77011;BME280;65945;53.148;17.956;2023-08-06T12:30:12;99043.87;;;19.54;91.99
77011;BME280;65945;53.148;17.956;2023-08-06T12:32:39;99040.20;;;19.53;91.93
77011;BME280;65945;53.148;17.956;2023-08-06T12:35:06;99038.56;;;19.51;92.20
77011;BME280;65945;53.148;17.956;2023-08-06T12:37:36;99038.62;;;19.50;92.12
77011;BME280;65945;53.148;17.956;2023-08-06T12:40:05;99034.46;;;19.49;92.26
77011;BME280;65945;53.148;17.956;2023-08-06T12:42:35;99032.84;;;19.49;92.46
77011;BME280;65945;53.148;17.956;2023-08-06T12:45:01;99022.80;;;19.49;92.57
77011;BME280;65945;53.148;17.956;2023-08-06T12:47:29;99014.80;;;19.49;92.76
77011;BME280;65945;53.148;17.956;2023-08-06T12:49:55;99000.92;;;19.49;92.74
77011;BME280;65945;53.148;17.956;2023-08-06T12:52:22;98997.91;;;19.51;92.80
77011;BME280;65945;53.148;17.956;2023-08-06T12:54:48;99003.42;;;19.52;92.72
77011;BME280;65945;53.148;17.956;2023-08-06T12:57:15;98994.11;;;19.54;92.98
77011;BME280;65945;53.148;17.956;2023-08-06T12:59:41;98988.31;;;19.55;93.30
77011;BME280;65945;53.148;17.956;2023-08-06T13:02:08;98988.11;;;19.57;93.38
77011;BME280;65945;53.148;17.956;2023-08-06T13:04:35;98979.14;;;19.58;93.44
77011;BME280;65945;53.148;17.956;2023-08-06T13:07:01;98977.60;;;19.60;93.28
77011;BME280;65945;53.148;17.956;2023-08-06T13:09:28;98976.77;;;19.63;93.49